Time;durP1;ratioP1;P1;durP2;ratioP2;P2;SDS_P1;SDS_P2;PMS_P1;PMS_P2;Temp;Humidity;BMP_temperature;BMP_pressure;BME280_temperature;BME280_humidity;BME280_pressure;Samples;Min_cycle;Max_cycle;Signal;HPM_P1;HPM_P2
2021/01/15 00:01:18;;;;;;;13.67;3.90;;;3.10;99.90;;;3.71;85.41;101631.00;5067531;28;20200;-74
2021/01/15 00:03:45;;;;;;;10.80;3.80;;;3.00;99.90;;;3.70;85.50;101632.72;5061674;28;20215;-75
2021/01/15 00:06:20;;;;;;;12.10;4.20;;;3.10;99.90;;;3.73;85.66;101632.72;5065724;28;20188;-74
2021/01/15 00:08:46;;;;;;;12.32;4.35;;;3.10;99.90;;;3.73;85.30;101634.47;5067827;28;20214;-75
2021/01/15 00:11:25;;;;;;;12.45;4.00;;;3.10;99.90;;;3.74;85.79;101633.59;5066254;28;20204;-75
2021/01/15 00:13:53;;;;;;;10.63;3.97;;;3.10;99.90;;;3.72;85.48;101635.31;5067690;28;20208;-75
2021/01/15 00:16:22;;;;;;;12.73;3.83;;;3.10;99.90;;;3.71;85.66;101636.19;5065125;28;20298;-75
2021/01/15 00:18:49;;;;;;;10.63;3.47;;;3.10;99.90;;;3.71;85.69;101642.22;5068033;28;20649;-74
2021/01/15 00:21:25;;;;;;;14.17;4.30;;;3.10;99.90;;;3.67;85.71;101635.28;5069386;28;20242;-74
2021/01/15 00:23:54;;;;;;;14.63;3.90;;;3.10;99.90;;;3.65;85.59;101636.16;5047640;28;20719;-74
2021/01/15 00:26:23;;;;;;;12.00;3.93;;;3.00;99.90;;;3.63;85.71;101630.09;5065481;28;20566;-75
2021/01/15 00:28:50;;;;;;;10.60;3.80;;;3.00;99.90;;;3.61;86.01;101629.22;5064156;28;20216;-74
2021/01/15 00:31:17;;;;;;;12.90;3.93;;;3.00;99.90;;;3.60;85.99;101630.09;5067155;28;20568;-74
2021/01/15 00:33:44;;;;;;;10.93;3.80;;;3.00;99.90;;;3.60;85.85;101640.44;5067302;28;20212;-73
2021/01/15 00:36:11;;;;;;;12.90;3.97;;;3.00;99.90;;;3.54;85.72;101637.81;5051563;28;20218;-74
2021/01/15 00:38:39;;;;;;;10.30;3.80;;;2.90;99.90;;;3.51;85.98;101630.03;5066843;28;20218;-74
2021/01/15 00:41:08;;;;;;;11.82;3.70;;;2.90;99.90;;;3.47;85.82;101631.72;5066938;28;20200;-75
2021/01/15 00:43:35;;;;;;;11.37;4.00;;;2.90;99.90;;;3.45;86.24;101627.41;5052013;28;20511;-74
2021/01/15 00:46:07;;;;;;;11.03;3.73;;;2.90;99.90;;;3.45;86.70;101627.41;5066688;28;20192;-74
2021/01/15 00:48:33;;;;;;;12.23;3.80;;;2.90;99.90;;;3.45;86.20;101630.00;5064725;28;20261;-74
2021/01/15 00:51:09;;;;;;;12.50;4.00;;;2.80;99.90;;;3.43;86.38;101636.88;5064960;28;20218;-73
2021/01/15 00:53:36;;;;;;;16.87;4.50;;;2.80;99.90;;;3.44;86.54;101636.00;5063012;28;20305;-74
2021/01/15 00:56:04;;;;;;;12.13;4.20;;;2.80;99.90;;;3.41;86.36;101634.28;5053987;28;20583;-74
2021/01/15 00:58:30;;;;;;;12.37;4.40;;;2.80;99.90;;;3.41;86.54;101643.75;5049856;28;23079;-74
2021/01/15 01:00:57;;;;;;;13.00;4.07;;;2.80;99.90;;;3.41;86.64;101647.22;5049225;28;20192;-74
2021/01/15 01:03:35;;;;;;;12.73;3.80;;;2.80;99.90;;;3.43;86.52;101649.81;5047985;28;20216;-75
2021/01/15 01:06:01;;;;;;;13.60;4.13;;;2.80;99.90;;;3.41;86.36;101647.22;5044168;28;20193;-74
2021/01/15 01:08:27;;;;;;;11.87;4.30;;;2.80;99.90;;;3.41;86.44;101651.53;5066086;28;20223;-75
2021/01/15 01:10:58;;;;;;;12.83;3.60;;;2.70;99.90;;;3.41;86.50;101656.69;5050385;28;20192;-73
2021/01/15 01:13:25;;;;;;;13.03;4.50;;;2.80;99.90;;;3.43;86.44;101655.00;5066360;28;20628;-72
2021/01/15 01:15:51;;;;;;;12.27;4.13;;;2.80;99.90;;;3.44;86.17;101656.72;5066003;28;20195;-73
2021/01/15 01:18:18;;;;;;;11.10;4.17;;;2.80;99.90;;;3.46;86.51;101655.00;5047032;28;20200;-74
2021/01/15 01:20:44;;;;;;;12.40;4.40;;;2.80;99.90;;;3.44;86.34;101654.13;5063817;28;20310;-73
2021/01/15 01:23:10;;;;;;;13.67;4.77;;;2.80;99.90;;;3.40;86.14;101663.56;5063934;28;20212;-75
2021/01/15 01:25:36;;;;;;;12.53;4.00;;;2.80;99.90;;;3.39;86.11;101663.56;5047357;28;20188;-74
2021/01/15 01:28:03;;;;;;;14.23;4.80;;;2.70;99.90;;;3.41;86.29;101667.03;5046962;28;20208;-74
2021/01/15 01:30:30;;;;;;;14.23;4.33;;;2.70;99.90;;;3.37;86.09;101676.50;5048957;28;20208;-75
2021/01/15 01:32:57;;;;;;;13.13;4.10;;;2.70;99.90;;;3.38;86.04;101672.19;5065597;28;20704;-74
2021/01/15 01:35:23;;;;;;;14.13;4.93;;;2.70;99.90;;;3.38;86.16;101679.94;5046360;28;20193;-74
2021/01/15 01:37:49;;;;;;;15.00;4.60;;;2.70;99.90;;;3.34;86.05;101675.59;5051479;28;20196;-73
2021/01/15 01:40:16;;;;;;;12.43;4.43;;;2.70;99.90;;;3.31;86.13;101676.47;5047174;28;20207;-72
2021/01/15 01:42:42;;;;;;;14.57;4.33;;;2.70;99.90;;;3.29;86.05;101677.28;5065495;28;20295;-74
2021/01/15 01:45:10;;;;;;;11.37;4.10;;;2.70;99.90;;;3.30;86.14;101679.88;5046103;28;20697;-71
2021/01/15 01:47:37;;;;;;;11.77;4.13;;;2.70;99.90;;;3.31;86.28;101683.34;5047394;28;20199;-74
2021/01/15 01:50:06;;;;;;;13.63;4.13;;;2.70;99.90;;;3.32;86.34;101678.19;5060039;28;20559;-75
2021/01/15 01:52:32;;;;;;;11.17;4.10;;;2.70;99.90;;;3.34;86.00;101680.78;5064392;28;20228;-74
2021/01/15 01:54:58;;;;;;;11.00;3.70;;;2.70;99.90;;;3.35;85.73;101677.34;5061215;28;20185;-75
2021/01/15 01:57:25;;;;;;;12.30;3.90;;;2.70;99.90;;;3.37;85.74;101675.63;5064407;28;20607;-74
2021/01/15 01:59:51;;;;;;;10.10;3.43;;;2.70;99.90;;;3.33;85.50;101681.63;5044691;28;20196;-76
2021/01/15 02:02:18;;;;;;;11.23;4.17;;;2.70;99.90;;;3.30;85.54;101674.72;5060865;28;20192;-73
2021/01/15 02:04:45;;;;;;;10.60;3.70;;;2.70;99.90;;;3.33;85.55;101679.06;5062000;28;20191;-75
2021/01/15 02:07:13;;;;;;;13.63;4.20;;;2.70;99.90;;;3.33;85.92;101679.06;5055508;28;20215;-75
2021/01/15 02:09:50;;;;;;;13.20;3.87;;;2.70;99.90;;;3.28;85.54;101686.75;5047447;28;20315;-73
2021/01/15 02:12:27;;;;;;;13.13;3.93;;;2.70;99.90;;;3.24;85.25;101681.56;5047354;28;20196;-75
2021/01/15 02:15:08;;;;;;;12.97;4.07;;;2.70;99.90;;;3.23;85.60;101678.09;5065058;28;20759;-74
2021/01/15 02:17:40;;;;;;;11.97;3.97;;;2.60;99.90;;;3.26;85.74;101678.16;5064705;28;20574;-74
2021/01/15 02:20:37;;;;;;;11.67;4.13;;;2.70;99.90;;;3.25;85.66;101676.41;5043270;28;20509;-74
2021/01/15 02:23:13;;;;;;;11.20;3.87;;;2.70;99.90;;;3.26;85.54;101677.28;5062879;28;20258;-72
2021/01/15 02:26:41;;;;;;;9.90;3.53;;;2.70;99.90;;;3.26;85.18;101682.44;5058753;28;20249;-74
2021/01/15 02:29:15;;;;;;;12.87;4.13;;;2.70;99.90;;;3.24;85.71;101689.31;5059745;28;20216;-73
2021/01/15 02:32:32;;;;;;;13.37;4.07;;;2.60;99.90;;;3.19;85.25;101680.66;5060212;28;20322;-74
2021/01/15 02:35:23;;;;;;;11.70;4.23;;;2.60;99.90;;;3.15;85.44;101684.09;5042477;28;20185;-74
2021/01/15 02:38:20;;;;;;;11.67;3.80;;;2.60;99.90;;;3.18;85.70;101700.47;5060243;28;20250;-74
2021/01/15 02:41:10;;;;;;;12.23;3.77;;;2.60;99.90;;;3.20;85.56;101692.75;5043756;28;20196;-71
2021/01/15 02:43:38;;;;;;;15.07;4.13;;;2.60;99.90;;;3.22;85.54;101703.94;5066150;28;20570;-74
2021/01/15 02:46:10;;;;;;;13.20;3.93;;;2.60;99.90;;;3.27;85.58;101702.25;5064510;28;20184;-74
2021/01/15 02:48:41;;;;;;;10.47;3.53;;;2.70;99.90;;;3.29;85.23;101703.16;5061691;28;20235;-73
2021/01/15 02:51:08;;;;;;;12.77;4.53;;;2.70;99.90;;;3.26;85.31;101704.00;5057470;28;20299;-74
2021/01/15 02:53:35;;;;;;;11.57;4.20;;;2.70;99.90;;;3.27;85.40;101705.72;5061914;28;20224;-74
2021/01/15 02:56:01;;;;;;;15.40;4.40;;;2.70;99.90;;;3.30;85.16;101710.06;5044291;28;20668;-74
2021/01/15 02:58:27;;;;;;;11.70;4.32;;;2.70;99.90;;;3.30;85.00;101710.06;5060806;28;20196;-74
2021/01/15 03:00:54;;;;;;;15.23;5.00;;;2.70;99.90;;;3.28;85.25;101717.78;5062778;28;20192;-75
2021/01/15 03:03:32;;;;;;;13.97;4.47;;;2.70;99.90;;;3.32;85.28;101721.25;5060138;28;20237;-74
2021/01/15 03:06:06;;;;;;;13.57;4.20;;;2.70;99.90;;;3.35;85.24;101713.56;5042908;28;20570;-75
2021/01/15 03:08:34;;;;;;;11.77;4.07;;;2.80;99.90;;;3.34;85.07;101717.84;5064162;28;20273;-74
2021/01/15 03:11:02;;;;;;;14.43;4.20;;;2.80;99.90;;;3.35;85.27;101723.91;5059301;28;20216;-75
2021/01/15 03:13:30;;;;;;;12.27;4.13;;;2.80;99.90;;;3.36;85.36;101715.28;5057730;28;20826;-74
2021/01/15 03:16:00;;;;;;;12.30;3.90;;;2.70;99.90;;;3.36;85.22;101721.31;5043341;28;20214;-75
2021/01/15 03:18:29;;;;;;;17.73;4.80;;;2.80;99.90;;;3.32;85.16;101724.72;5058884;28;20202;-74
2021/01/15 03:20:58;;;;;;;14.60;4.07;;;2.70;99.90;;;3.29;85.06;101726.41;5044815;28;20660;-74
2021/01/15 03:23:26;;;;;;;12.17;4.50;;;2.70;99.90;;;3.27;84.87;101729.00;5066569;28;20207;-74
2021/01/15 03:25:52;;;;;;;13.70;4.53;;;2.70;99.90;;;3.28;85.00;101727.28;5064617;28;20188;-74
2021/01/15 03:28:18;;;;;;;13.80;4.35;;;2.70;99.90;;;3.27;84.59;101726.41;5048135;28;20684;-74
2021/01/15 03:30:44;;;;;;;11.20;3.93;;;2.70;99.90;;;3.22;84.67;101722.03;5067142;28;20188;-73
2021/01/15 03:33:11;;;;;;;13.97;3.97;;;2.70;99.90;;;3.19;84.44;101722.91;5046566;28;20216;-73
2021/01/15 03:35:37;;;;;;;11.03;3.80;;;2.60;99.90;;;3.18;84.64;101726.31;5065968;28;20188;-74
2021/01/15 03:38:06;;;;;;;11.53;4.27;;;2.60;99.90;;;3.14;84.23;101723.69;5064988;28;20196;-75
2021/01/15 03:40:35;;;;;;;11.87;3.53;;;2.60;99.90;;;3.14;84.71;101716.81;5046828;28;20203;-74
2021/01/15 03:43:11;;;;;;;10.43;3.67;;;2.60;99.90;;;3.14;84.53;101718.53;5066079;28;20790;-75
2021/01/15 03:45:37;;;;;;;12.80;3.97;;;2.60;99.90;;;3.18;84.66;101709.97;5064329;28;20263;-74
2021/01/15 03:48:05;;;;;;;11.90;3.70;;;2.60;99.90;;;3.19;84.44;101704.81;5051272;28;20224;-73
2021/01/15 03:50:31;;;;;;;12.50;4.33;;;2.60;99.90;;;3.17;84.52;101703.03;5051177;28;20203;-74
2021/01/15 03:52:57;;;;;;;13.00;4.20;;;2.60;99.90;;;3.15;84.60;101713.38;5064464;28;20259;-74
2021/01/15 03:55:24;;;;;;;12.93;4.60;;;2.60;99.90;;;3.16;84.65;101709.06;5043821;28;20306;-74
2021/01/15 03:57:51;;;;;;;11.02;4.25;;;2.60;99.90;;;3.15;84.60;101712.53;5044575;28;21858;-74
2021/01/15 04:00:18;;;;;;;12.20;4.33;;;2.60;99.90;;;3.16;84.39;101720.28;5046589;28;20191;-74
2021/01/15 04:02:44;;;;;;;10.90;4.10;;;2.60;99.90;;;3.16;84.38;101711.66;5065675;28;20574;-75
2021/01/15 04:05:13;;;;;;;10.67;4.10;;;2.60;99.90;;;3.14;84.28;101716.81;5047074;28;20204;-73
2021/01/15 04:07:41;;;;;;;11.53;4.00;;;2.60;99.90;;;3.19;84.30;101716.84;5048221;28;20203;-74
2021/01/15 04:10:11;;;;;;;13.40;3.97;;;2.70;99.90;;;3.19;84.31;101716.84;5045827;28;20200;-73
2021/01/15 04:12:38;;;;;;;13.93;4.37;;;2.70;99.90;;;3.24;84.38;101725.50;5062285;28;20216;-75
2021/01/15 04:15:08;;;;;;;14.03;4.97;;;2.70;99.90;;;3.26;84.16;101729.88;5045413;28;20192;-75
2021/01/15 04:17:35;;;;;;;12.53;4.50;;;2.70;99.90;;;3.25;84.01;101722.09;5065135;28;20246;-75
2021/01/15 04:20:02;;;;;;;13.75;4.93;;;2.70;99.90;;;3.22;84.04;101719.47;5061843;28;20196;-74
2021/01/15 04:22:34;;;;;;;12.03;4.10;;;2.70;99.90;;;3.21;83.96;101717.72;5061787;28;20216;-75
2021/01/15 04:25:00;;;;;;;13.80;4.80;;;2.70;99.90;;;3.20;84.10;101721.19;5058729;28;20188;-74
2021/01/15 04:27:29;;;;;;;15.87;4.93;;;2.60;99.90;;;3.14;84.33;101716.81;5061724;28;20667;-74
2021/01/15 04:29:55;;;;;;;11.17;3.97;;;2.60;99.90;;;3.15;84.40;101728.88;5064090;28;20297;-74
2021/01/15 04:32:22;;;;;;;13.67;4.87;;;2.60;99.90;;;3.16;84.17;101719.41;5067093;28;20207;-75
2021/01/15 04:34:49;;;;;;;14.40;4.67;;;2.60;99.90;;;3.17;84.43;101723.72;5050957;28;20681;-75
2021/01/15 04:37:15;;;;;;;12.03;4.27;;;2.60;99.90;;;3.15;84.18;101717.69;5061808;28;20203;-73
2021/01/15 04:39:42;;;;;;;11.70;4.67;;;2.60;99.90;;;3.11;83.97;101723.69;5063573;28;20192;-76
2021/01/15 04:42:12;;;;;;;12.63;4.40;;;2.50;99.90;;;3.11;83.83;101715.94;5062627;28;20192;-73
2021/01/15 04:44:40;;;;;;;13.33;4.37;;;2.50;99.90;;;3.13;83.43;101716.81;5063220;28;20203;-75
2021/01/15 04:47:08;;;;;;;12.60;4.03;;;2.50;99.90;;;3.09;83.18;101715.03;5065423;28;20192;-72
2021/01/15 04:49:36;;;;;;;10.13;4.00;;;2.40;99.90;;;3.01;82.96;101716.69;5052346;28;20223;-72
2021/01/15 04:52:03;;;;;;;12.37;4.23;;;2.40;99.90;;;3.02;82.90;101721.88;5063004;28;20238;-74
2021/01/15 04:54:37;;;;;;;13.17;4.27;;;2.40;99.90;;;3.03;82.88;101725.34;5062337;28;20204;-74
2021/01/15 04:57:06;;;;;;;13.37;4.50;;;2.40;99.90;;;3.00;82.43;101714.97;5056545;28;20272;-75
2021/01/15 04:59:44;;;;;;;12.63;4.40;;;2.40;99.90;;;2.98;82.42;101724.44;5059895;28;20214;-74
2021/01/15 05:02:13;;;;;;;13.23;4.03;;;2.40;99.90;;;2.91;82.52;101717.47;5060319;28;20199;-75
2021/01/15 05:04:41;;;;;;;12.77;4.43;;;2.30;99.90;;;2.86;82.29;101721.72;5044687;28;20192;-74
2021/01/15 05:07:10;;;;;;;11.47;4.03;;;2.30;99.90;;;2.81;82.36;101725.97;5063634;28;20592;-73
2021/01/15 05:09:43;;;;;;;11.23;4.30;;;2.30;99.90;;;2.80;82.25;101732.84;5062723;28;20628;-72
2021/01/15 05:12:12;;;;;;;14.50;4.57;;;2.20;99.90;;;2.81;82.46;101731.13;5067763;28;21151;-75
2021/01/15 05:14:39;;;;;;;10.93;4.03;;;2.20;99.90;;;2.81;82.07;101726.84;5064154;28;20200;-75
2021/01/15 05:17:07;;;;;;;13.73;4.00;;;2.20;99.90;;;2.80;82.07;101726.84;5050572;28;20196;-74
2021/01/15 05:19:38;;;;;;;11.17;3.60;;;2.20;99.90;;;2.76;82.14;101731.09;5060987;28;21908;-73
2021/01/15 05:22:06;;;;;;;15.23;4.27;;;2.20;99.90;;;2.79;82.43;101730.25;5049369;28;20731;-74
2021/01/15 05:24:32;;;;;;;14.07;4.80;;;2.20;99.90;;;2.80;82.58;101725.09;5045536;28;20196;-74
2021/01/15 05:27:02;;;;;;;10.55;3.85;;;2.20;99.90;;;2.85;82.87;101733.75;5062746;28;20196;-73
2021/01/15 05:29:28;;;;;;;12.70;4.00;;;2.20;99.90;;;2.87;82.25;101731.19;5062977;28;20212;-74
2021/01/15 05:31:59;;;;;;;10.93;3.93;;;2.20;99.90;;;2.83;81.96;101732.03;5063663;28;20196;-74
2021/01/15 05:34:27;;;;;;;12.97;4.13;;;2.20;99.90;;;2.79;82.01;101731.13;5046688;28;20228;-72
2021/01/15 05:36:54;;;;;;;12.10;3.87;;;2.20;99.90;;;2.74;81.66;101735.38;5064311;28;20648;-74
2021/01/15 05:39:24;;;;;;;11.57;3.50;;;2.20;99.90;;;2.70;80.93;101731.03;5047277;28;20196;-73
2021/01/15 05:41:58;;;;;;;11.30;4.07;;;2.10;99.90;;;2.67;80.47;101741.31;5064483;28;20192;-75
2021/01/15 05:44:26;;;;;;;11.27;3.67;;;2.10;99.90;;;2.66;80.28;101738.72;5045614;28;20217;-74
2021/01/15 05:46:53;;;;;;;11.30;3.57;;;2.10;99.90;;;2.68;79.77;101737.88;5045555;28;20306;-74
2021/01/15 05:49:19;;;;;;;10.23;3.60;;;2.00;99.90;;;2.71;79.41;101748.28;5063265;28;20227;-73
2021/01/15 05:51:46;;;;;;;12.93;3.90;;;2.00;99.90;;;2.71;79.00;101737.06;5061329;28;20188;-74
2021/01/15 05:54:28;;;;;;;13.43;4.33;;;2.00;99.90;;;2.72;79.27;101747.41;5064101;28;20211;-75
2021/01/15 05:56:57;;;;;;;12.23;3.60;;;2.00;99.90;;;2.72;79.50;101750.00;5060645;28;20192;-74
2021/01/15 05:59:23;;;;;;;11.10;4.00;;;2.00;99.90;;;2.74;79.45;101750.88;5046078;28;21071;-74
2021/01/15 06:01:52;;;;;;;10.00;3.40;;;2.10;99.90;;;2.76;79.36;101756.06;5043259;28;20672;-74
2021/01/15 06:04:35;;;;;;;11.47;3.80;;;2.10;99.90;;;2.78;79.29;101755.22;5058918;28;20219;-74
2021/01/15 06:07:17;;;;;;;12.47;4.43;;;2.10;99.90;;;2.79;79.24;101756.09;5047274;28;20208;-72
2021/01/15 06:09:46;;;;;;;12.70;3.83;;;2.10;99.90;;;2.77;79.14;101762.94;5056900;28;20653;-75
2021/01/15 06:12:19;;;;;;;11.57;3.57;;;2.10;99.90;;;2.77;79.11;101757.78;5040414;28;20208;-75
2021/01/15 06:14:49;;;;;;;11.30;4.23;;;2.10;99.90;;;2.77;79.22;101761.25;5062560;28;20207;-75
2021/01/15 06:17:18;;;;;;;12.87;3.90;;;2.10;99.90;;;2.79;79.33;101769.00;5060827;28;20195;-75
2021/01/15 06:19:46;;;;;;;10.57;4.03;;;2.10;99.90;;;2.76;79.45;101766.41;5045255;28;20184;-74
2021/01/15 06:22:29;;;;;;;10.70;4.03;;;2.10;99.90;;;2.72;79.61;101767.19;5057669;28;20607;-74
2021/01/15 06:25:08;;;;;;;12.37;3.83;;;2.20;99.90;;;2.73;79.46;101768.94;5042372;28;20223;-73
2021/01/15 06:27:37;;;;;;;13.27;4.50;;;2.20;99.90;;;2.67;79.18;101774.91;5060660;28;20242;-74
2021/01/15 06:30:07;;;;;;;11.67;3.80;;;2.10;99.90;;;2.65;79.28;101771.44;5062812;28;20216;-74
2021/01/15 06:32:34;;;;;;;10.27;3.80;;;2.10;99.90;;;2.64;79.42;101781.75;5063477;28;20208;-73
2021/01/15 06:35:02;;;;;;;13.23;3.80;;;2.10;99.90;;;2.64;79.44;101780.03;5062764;28;20206;-74
2021/01/15 06:37:30;;;;;;;10.93;4.30;;;2.10;99.90;;;2.63;79.47;101780.88;5062510;28;20188;-74
2021/01/15 06:40:04;;;;;;;9.77;3.40;;;2.10;99.90;;;2.61;79.53;101785.19;5062477;28;20203;-75
2021/01/15 06:42:31;;;;;;;12.67;4.40;;;2.00;99.90;;;2.60;79.76;101788.59;5047537;28;20291;-72
2021/01/15 06:44:58;;;;;;;13.10;4.07;;;2.00;99.90;;;2.60;80.10;101790.34;5044854;28;20197;-74
2021/01/15 06:47:28;;;;;;;11.53;3.90;;;2.00;99.90;;;2.63;80.31;101792.94;5043568;28;20204;-75
2021/01/15 06:49:57;;;;;;;13.07;4.50;;;2.00;99.90;;;2.69;80.42;101790.41;5060185;28;20316;-73
2021/01/15 06:52:27;;;;;;;11.73;4.00;;;2.10;99.90;;;2.71;80.50;101799.06;5059853;28;20242;-76
2021/01/15 06:55:02;;;;;;;13.47;4.83;;;2.10;99.90;;;2.73;80.65;101795.63;5056622;28;20192;-74
2021/01/15 06:57:30;;;;;;;14.03;4.37;;;2.10;99.90;;;2.74;80.91;101794.81;5058802;28;20570;-75
2021/01/15 07:00:02;;;;;;;10.87;4.23;;;2.10;99.90;;;2.76;81.15;101797.41;5062707;28;20699;-75
2021/01/15 07:03:04;;;;;;;13.47;4.37;;;2.10;99.90;;;2.75;81.07;101806.00;5042752;28;20215;-73
2021/01/15 07:05:44;;;;;;;11.20;3.90;;;2.10;99.90;;;2.75;81.08;101800.84;5056386;28;20192;-71
2021/01/15 07:08:13;;;;;;;14.60;5.27;;;2.20;99.90;;;2.72;81.23;101800.78;5055801;28;20711;-74
2021/01/15 07:10:40;;;;;;;11.53;4.90;;;2.10;99.90;;;2.71;80.99;101812.84;5042048;28;20656;-74
2021/01/15 07:13:11;;;;;;;14.30;4.73;;;2.10;99.90;;;2.73;80.97;101808.53;5037711;28;20827;-75
2021/01/15 07:15:42;;;;;;;13.20;4.27;;;2.10;99.90;;;2.73;80.93;101818.03;5052569;28;20193;-75
2021/01/15 07:18:30;;;;;;;12.00;4.23;;;2.20;99.90;;;2.71;80.97;101809.41;5037208;28;20189;-73
2021/01/15 07:21:06;;;;;;;13.83;4.77;;;2.10;99.90;;;2.68;80.52;101815.38;5051492;28;20193;-74
2021/01/15 07:23:52;;;;;;;13.87;4.40;;;2.10;99.90;;;2.74;80.52;101819.75;5055825;28;20230;-74
2021/01/15 07:26:19;;;;;;;13.00;4.30;;;2.10;99.90;;;2.77;80.28;101818.06;5057016;28;20713;-75
2021/01/15 07:28:46;;;;;;;11.67;3.97;;;2.10;99.90;;;2.74;80.23;101820.63;5038005;28;20204;-75
2021/01/15 07:31:22;;;;;;;11.37;3.90;;;2.10;99.90;;;2.65;79.70;101822.25;5060014;28;20203;-74
2021/01/15 07:33:57;;;;;;;13.33;4.60;;;2.10;99.90;;;2.63;79.57;101831.69;5043582;28;20294;-74
2021/01/15 07:36:38;;;;;;;11.70;3.93;;;2.10;99.90;;;2.60;79.38;101822.16;5056172;28;20188;-74
2021/01/15 07:39:10;;;;;;;12.43;4.57;;;2.00;99.90;;;2.56;79.06;101831.59;5055028;28;20649;-75
2021/01/15 07:41:52;;;;;;;12.30;4.13;;;2.00;99.90;;;2.58;79.22;101830.75;5041031;28;20722;-74
2021/01/15 07:44:38;;;;;;;11.97;4.43;;;2.00;99.90;;;2.58;78.88;101833.34;5053241;28;20725;-75
2021/01/15 07:47:12;;;;;;;10.80;3.67;;;2.00;99.90;;;2.61;79.05;101823.03;5058477;28;20196;-74
2021/01/15 07:49:47;;;;;;;12.53;4.10;;;2.00;99.90;;;2.67;79.00;101823.97;5044899;28;20207;-75
2021/01/15 07:52:14;;;;;;;13.23;3.80;;;2.10;99.90;;;2.68;78.61;101833.47;5038727;28;20577;-74
2021/01/15 07:54:59;;;;;;;12.13;3.80;;;2.10;99.90;;;2.70;78.57;101836.94;5034743;28;20280;-74
2021/01/15 07:57:27;;;;;;;12.53;4.30;;;2.10;99.90;;;2.72;78.46;101836.94;5057285;28;20199;-75
2021/01/15 07:59:53;;;;;;;9.87;3.40;;;2.10;99.90;;;2.71;78.29;101835.22;5036709;28;20209;-72
2021/01/15 08:02:21;;;;;;;13.53;4.77;;;2.10;99.90;;;2.70;78.18;101838.66;5057590;28;20199;-74
2021/01/15 08:04:47;;;;;;;12.37;4.63;;;2.20;99.90;;;2.71;78.18;101836.09;5035434;28;20265;-74
2021/01/15 08:07:27;;;;;;;12.13;4.50;;;2.10;99.90;;;2.72;77.84;101839.53;5063496;28;20207;-76
2021/01/15 08:09:54;;;;;;;15.47;4.53;;;2.20;99.90;;;2.70;77.53;101836.09;5045233;28;20216;-74
2021/01/15 08:12:21;;;;;;;15.07;5.90;;;2.10;99.90;;;2.69;77.49;101842.09;5060628;28;20311;-74
2021/01/15 08:14:47;;;;;;;12.07;4.60;;;2.10;99.90;;;2.69;77.27;101849.84;5036606;28;21383;-75
2021/01/15 08:17:14;;;;;;;11.93;4.20;;;2.10;99.90;;;2.65;76.95;101846.34;5061099;28;20587;-75
2021/01/15 08:19:42;;;;;;;12.43;4.67;;;2.10;99.90;;;2.63;77.22;101845.44;5057923;28;20600;-75
2021/01/15 08:22:14;;;;;;;12.00;5.03;;;2.10;99.90;;;2.58;77.00;101849.69;5060883;28;20701;-74
2021/01/15 08:24:47;;;;;;;15.37;5.97;;;2.00;99.90;;;2.55;77.10;101847.94;5056423;28;20226;-75
2021/01/15 08:27:18;;;;;;;12.33;4.70;;;2.00;99.90;;;2.54;77.09;101848.78;5057236;28;20185;-75
2021/01/15 08:29:48;;;;;;;15.63;6.07;;;2.00;99.90;;;2.56;77.35;101856.56;5059967;28;20224;-75
2021/01/15 08:32:19;;;;;;;11.10;4.87;;;2.00;99.90;;;2.61;77.50;101844.59;5043966;28;20216;-75
2021/01/15 08:34:46;;;;;;;12.37;4.80;;;2.00;99.90;;;2.65;77.48;101853.25;5038466;28;20207;-72
2021/01/15 08:37:16;;;;;;;11.30;4.50;;;2.00;99.90;;;2.63;77.71;101850.63;5064339;28;20196;-74
2021/01/15 08:39:45;;;;;;;12.43;4.67;;;2.00;99.90;;;2.62;78.06;101861.81;5045095;28;20219;-74
2021/01/15 08:42:13;;;;;;;12.03;4.50;;;2.00;99.90;;;2.60;78.11;101862.66;5060277;28;20270;-74
2021/01/15 08:44:41;;;;;;;12.93;4.97;;;2.00;99.90;;;2.61;78.15;101860.09;5048160;28;20196;-74
2021/01/15 08:47:11;;;;;;;12.80;4.60;;;2.10;99.90;;;2.59;78.10;101866.94;5060203;28;20560;-75
2021/01/15 08:49:38;;;;;;;11.33;4.00;;;2.00;99.90;;;2.56;78.29;101866.91;5041502;28;20585;-74
2021/01/15 08:52:07;;;;;;;10.90;3.60;;;2.00;99.90;;;2.54;78.25;101872.00;5059776;28;20223;-74
2021/01/15 08:54:39;;;;;;;10.60;3.67;;;2.00;99.90;;;2.49;78.34;101871.09;5055916;28;20188;-76
2021/01/15 08:57:05;;;;;;;11.63;3.87;;;2.00;99.90;;;2.49;78.41;101875.41;5059887;28;20253;-74
2021/01/15 08:59:33;;;;;;;12.17;3.90;;;1.90;99.90;;;2.48;78.49;101879.69;5061672;28;20323;-76
2021/01/15 09:02:04;;;;;;;11.43;3.90;;;1.90;99.90;;;2.49;78.79;101881.41;5046155;28;20189;-77
2021/01/15 09:04:33;;;;;;;10.57;3.97;;;2.00;99.90;;;2.47;78.77;101880.56;5053015;28;20664;-76
2021/01/15 09:07:01;;;;;;;10.27;3.47;;;2.00;99.90;;;2.47;78.92;101887.44;5060490;28;20438;-76
2021/01/15 09:09:30;;;;;;;10.70;3.73;;;1.90;99.90;;;2.47;79.01;101888.31;5057119;28;20584;-75
2021/01/15 09:12:06;;;;;;;15.67;4.03;;;2.00;99.90;;;2.50;78.87;101882.28;5061725;28;20189;-76
2021/01/15 09:14:35;;;;;;;11.23;3.90;;;1.90;99.90;;;2.46;78.03;101896.03;5055889;28;20204;-75
2021/01/15 09:17:03;;;;;;;14.30;4.67;;;1.90;99.90;;;2.44;77.98;101889.97;5059115;28;20192;-75
2021/01/15 09:19:29;;;;;;;12.00;3.80;;;1.90;99.90;;;2.43;77.88;101899.41;5057726;28;20200;-73
2021/01/15 09:22:00;;;;;;;13.87;4.90;;;1.90;99.90;;;2.44;77.88;101903.72;5040268;28;20247;-75
2021/01/15 09:24:29;;;;;;;12.50;4.67;;;1.90;99.90;;;2.44;77.65;101906.31;5055837;28;20665;-76
2021/01/15 09:26:57;;;;;;;15.17;4.03;;;1.90;99.90;;;2.48;77.71;101904.63;5057682;28;20274;-75
2021/01/15 09:29:24;;;;;;;11.57;4.13;;;1.90;99.90;;;2.48;77.40;101910.69;5058440;28;20247;-75
2021/01/15 09:31:51;;;;;;;10.53;3.63;;;1.90;99.90;;;2.44;77.32;101914.06;5064405;28;20188;-73
2021/01/15 09:34:18;;;;;;;12.17;4.30;;;1.90;99.90;;;2.41;77.09;101908.84;5040710;28;20236;-74
2021/01/15 09:36:47;;;;;;;10.77;4.10;;;1.80;99.90;;;2.41;77.15;101918.34;5043463;28;20196;-75
2021/01/15 09:39:16;;;;;;;12.40;4.03;;;1.80;99.90;;;2.40;77.08;101920.03;5040470;28;20200;-75
2021/01/15 09:41:45;;;;;;;12.70;4.10;;;1.80;99.90;;;2.36;77.17;101915.66;5045130;28;20196;-76
2021/01/15 09:44:13;;;;;;;11.77;4.40;;;1.70;99.90;;;2.34;77.17;101925.09;5043604;28;20220;-75
2021/01/15 09:46:39;;;;;;;11.10;4.10;;;1.70;99.90;;;2.40;77.57;101924.31;5044931;28;20582;-75
2021/01/15 09:49:06;;;;;;;13.13;3.77;;;1.80;99.90;;;2.42;77.12;101920.06;5052264;28;20225;-75
2021/01/15 09:51:33;;;;;;;12.53;4.33;;;1.80;99.90;;;2.38;76.98;101919.13;5054372;28;20234;-75
2021/01/15 09:54:00;;;;;;;11.43;3.77;;;1.80;99.90;;;2.35;77.05;101918.22;5040917;28;20712;-74
2021/01/15 09:56:29;;;;;;;12.53;3.83;;;1.80;99.90;;;2.37;76.78;101924.28;5040537;28;20192;-75
2021/01/15 09:58:58;;;;;;;12.63;4.60;;;1.80;99.90;;;2.35;76.85;101938.88;5063038;28;20188;-74
2021/01/15 10:01:26;;;;;;;10.47;3.67;;;1.80;99.90;;;2.32;76.66;101929.38;5065146;28;20196;-74
2021/01/15 10:03:54;;;;;;;12.93;4.20;;;1.70;99.90;;;2.27;76.91;101931.03;5057112;28;20216;-74
2021/01/15 10:06:20;;;;;;;10.67;3.40;;;1.70;99.90;;;2.27;77.17;101933.63;5063509;28;20196;-74
2021/01/15 10:08:47;;;;;;;12.97;3.80;;;1.70;99.90;;;2.30;77.55;101938.81;5064495;28;20212;-73
2021/01/15 10:11:21;;;;;;;13.03;4.37;;;1.80;99.90;;;2.33;77.30;101928.53;5034502;28;20660;-72
2021/01/15 10:13:48;;;;;;;11.03;4.00;;;1.80;99.90;;;2.33;77.74;101925.94;5039277;28;20222;-74
2021/01/15 10:16:16;;;;;;;11.87;3.60;;;1.80;99.90;;;2.35;77.61;101929.44;5058457;28;20192;-74
2021/01/15 10:18:42;;;;;;;12.00;3.47;;;1.80;99.90;;;2.34;77.80;101929.41;5039388;28;20196;-74
2021/01/15 10:21:09;;;;;;;10.87;4.70;;;1.80;99.90;;;2.35;77.95;101931.13;5059654;28;20189;-73
2021/01/15 10:23:35;;;;;;;12.00;4.17;;;1.80;99.90;;;2.38;78.05;101929.47;5055380;28;20223;-74
2021/01/15 10:26:02;;;;;;;11.87;4.00;;;1.80;99.90;;;2.39;78.05;101931.19;5047339;28;20201;-75
2021/01/15 10:28:28;;;;;;;13.13;4.23;;;1.80;99.90;;;2.39;78.18;101923.44;5059469;28;20203;-75
2021/01/15 10:30:54;;;;;;;10.00;3.77;;;1.80;99.90;;;2.41;78.51;101923.50;5043565;28;20187;-76
2021/01/15 10:33:22;;;;;;;9.53;3.53;;;1.80;99.90;;;2.41;78.31;101921.75;5038692;28;20216;-75